sensor_id;sensor_type;location;lat;lon;timestamp;P1;durP1;ratioP1;P2;durP2;ratioP2
4317;SDS011;2172;53.576;9.934;2024-03-25T00:01:46;6.57;;;2.20;;
4317;SDS011;2172;53.576;9.934;2024-03-25T00:04:14;7.63;;;3.17;;
4317;SDS011;2172;53.576;9.934;2024-03-25T00:06:41;9.50;;;2.50;;
4317;SDS011;2172;53.576;9.934;2024-03-25T00:09:08;3.73;;;2.00;;
4317;SDS011;2172;53.576;9.934;2024-03-25T00:11:39;6.97;;;3.27;;
4317;SDS011;2172;53.576;9.934;2024-03-25T00:14:08;4.00;;;1.73;;
4317;SDS011;2172;53.576;9.934;2024-03-25T00:16:35;6.20;;;2.27;;
4317;SDS011;2172;53.576;9.934;2024-03-25T00:19:02;5.67;;;2.50;;
4317;SDS011;2172;53.576;9.934;2024-03-25T00:21:29;7.20;;;2.43;;
4317;SDS011;2172;53.576;9.934;2024-03-25T00:23:57;6.83;;;2.50;;
4317;SDS011;2172;53.576;9.934;2024-03-25T00:26:23;9.97;;;2.97;;
4317;SDS011;2172;53.576;9.934;2024-03-25T00:28:51;4.90;;;2.43;;
4317;SDS011;2172;53.576;9.934;2024-03-25T00:31:19;9.30;;;3.23;;
4317;SDS011;2172;53.576;9.934;2024-03-25T00:33:46;5.33;;;2.33;;
4317;SDS011;2172;53.576;9.934;2024-03-25T00:36:13;5.00;;;2.30;;
4317;SDS011;2172;53.576;9.934;2024-03-25T00:38:41;6.93;;;2.67;;
4317;SDS011;2172;53.576;9.934;2024-03-25T00:41:08;9.00;;;2.93;;
4317;SDS011;2172;53.576;9.934;2024-03-25T00:43:36;6.97;;;2.70;;
4317;SDS011;2172;53.576;9.934;2024-03-25T00:46:03;7.10;;;2.80;;
4317;SDS011;2172;53.576;9.934;2024-03-25T00:48:31;4.63;;;2.00;;
4317;SDS011;2172;53.576;9.934;2024-03-25T00:50:58;5.00;;;2.07;;
4317;SDS011;2172;53.576;9.934;2024-03-25T00:53:26;5.90;;;2.47;;
4317;SDS011;2172;53.576;9.934;2024-03-25T00:55:53;5.77;;;2.10;;
4317;SDS011;2172;53.576;9.934;2024-03-25T00:58:20;6.50;;;2.00;;
4317;SDS011;2172;53.576;9.934;2024-03-25T01:00:47;3.40;;;1.73;;
4317;SDS011;2172;53.576;9.934;2024-03-25T01:03:14;5.10;;;2.50;;
4317;SDS011;2172;53.576;9.934;2024-03-25T01:05:42;5.60;;;2.70;;
4317;SDS011;2172;53.576;9.934;2024-03-25T01:08:09;8.17;;;3.10;;
4317;SDS011;2172;53.576;9.934;2024-03-25T01:10:38;4.10;;;2.13;;
4317;SDS011;2172;53.576;9.934;2024-03-25T01:13:06;3.73;;;1.90;;
4317;SDS011;2172;53.576;9.934;2024-03-25T01:15:32;8.17;;;2.17;;
4317;SDS011;2172;53.576;9.934;2024-03-25T01:18:00;9.17;;;2.87;;
4317;SDS011;2172;53.576;9.934;2024-03-25T01:20:26;9.90;;;2.70;;
4317;SDS011;2172;53.576;9.934;2024-03-25T01:22:55;6.53;;;2.80;;
4317;SDS011;2172;53.576;9.934;2024-03-25T01:25:22;5.03;;;2.33;;
4317;SDS011;2172;53.576;9.934;2024-03-25T01:27:50;8.83;;;2.80;;
4317;SDS011;2172;53.576;9.934;2024-03-25T01:30:17;4.53;;;2.50;;
4317;SDS011;2172;53.576;9.934;2024-03-25T01:32:44;7.90;;;2.73;;
4317;SDS011;2172;53.576;9.934;2024-03-25T01:35:13;11.37;;;3.40;;
4317;SDS011;2172;53.576;9.934;2024-03-25T01:37:41;3.67;;;2.80;;
4317;SDS011;2172;53.576;9.934;2024-03-25T01:40:09;7.03;;;3.30;;
4317;SDS011;2172;53.576;9.934;2024-03-25T01:42:37;15.27;;;3.50;;
4317;SDS011;2172;53.576;9.934;2024-03-25T01:45:04;7.50;;;3.57;;
4317;SDS011;2172;53.576;9.934;2024-03-25T01:47:35;8.90;;;4.30;;
4317;SDS011;2172;53.576;9.934;2024-03-25T01:50:03;8.60;;;3.97;;
4317;SDS011;2172;53.576;9.934;2024-03-25T01:52:32;8.67;;;3.80;;
4317;SDS011;2172;53.576;9.934;2024-03-25T01:54:58;11.43;;;4.10;;
4317;SDS011;2172;53.576;9.934;2024-03-25T01:57:30;9.33;;;4.73;;
4317;SDS011;2172;53.576;9.934;2024-03-25T01:59:57;11.70;;;4.47;;
4317;SDS011;2172;53.576;9.934;2024-03-25T02:02:26;15.97;;;5.30;;
4317;SDS011;2172;53.576;9.934;2024-03-25T02:04:53;6.73;;;3.43;;
4317;SDS011;2172;53.576;9.934;2024-03-25T02:07:21;6.93;;;4.10;;
4317;SDS011;2172;53.576;9.934;2024-03-25T02:09:48;14.23;;;5.00;;
4317;SDS011;2172;53.576;9.934;2024-03-25T02:12:16;9.40;;;3.53;;
4317;SDS011;2172;53.576;9.934;2024-03-25T02:14:44;12.70;;;4.20;;
4317;SDS011;2172;53.576;9.934;2024-03-25T02:17:12;9.53;;;3.27;;
4317;SDS011;2172;53.576;9.934;2024-03-25T02:19:38;11.50;;;4.63;;
4317;SDS011;2172;53.576;9.934;2024-03-25T02:22:07;12.00;;;4.57;;
4317;SDS011;2172;53.576;9.934;2024-03-25T02:24:33;10.20;;;4.17;;
4317;SDS011;2172;53.576;9.934;2024-03-25T02:27:03;10.03;;;3.60;;
4317;SDS011;2172;53.576;9.934;2024-03-25T02:29:32;9.10;;;4.10;;
4317;SDS011;2172;53.576;9.934;2024-03-25T02:32:00;6.03;;;2.83;;
4317;SDS011;2172;53.576;9.934;2024-03-25T02:34:27;7.60;;;4.30;;
4317;SDS011;2172;53.576;9.934;2024-03-25T02:36:54;9.90;;;4.07;;
4317;SDS011;2172;53.576;9.934;2024-03-25T02:39:21;9.37;;;3.43;;
4317;SDS011;2172;53.576;9.934;2024-03-25T02:41:49;11.37;;;5.33;;
4317;SDS011;2172;53.576;9.934;2024-03-25T02:44:17;12.90;;;4.20;;
4317;SDS011;2172;53.576;9.934;2024-03-25T02:46:45;10.17;;;4.73;;
4317;SDS011;2172;53.576;9.934;2024-03-25T02:49:11;6.97;;;2.90;;
4317;SDS011;2172;53.576;9.934;2024-03-25T02:51:39;5.17;;;2.70;;
4317;SDS011;2172;53.576;9.934;2024-03-25T02:54:06;6.67;;;3.20;;
4317;SDS011;2172;53.576;9.934;2024-03-25T02:56:34;8.30;;;3.50;;
4317;SDS011;2172;53.576;9.934;2024-03-25T02:59:00;7.67;;;3.00;;
4317;SDS011;2172;53.576;9.934;2024-03-25T03:01:29;6.17;;;2.90;;
4317;SDS011;2172;53.576;9.934;2024-03-25T03:03:57;12.00;;;3.37;;
4317;SDS011;2172;53.576;9.934;2024-03-25T03:06:24;7.97;;;2.80;;
4317;SDS011;2172;53.576;9.934;2024-03-25T03:08:51;7.63;;;2.60;;
4317;SDS011;2172;53.576;9.934;2024-03-25T03:11:18;7.27;;;2.43;;
4317;SDS011;2172;53.576;9.934;2024-03-25T03:13:48;5.43;;;2.90;;
4317;SDS011;2172;53.576;9.934;2024-03-25T03:16:16;9.67;;;2.93;;
4317;SDS011;2172;53.576;9.934;2024-03-25T03:18:46;12.57;;;2.83;;
4317;SDS011;2172;53.576;9.934;2024-03-25T03:21:13;8.33;;;3.07;;
4317;SDS011;2172;53.576;9.934;2024-03-25T03:23:40;6.40;;;2.60;;
4317;SDS011;2172;53.576;9.934;2024-03-25T03:26:07;8.90;;;2.90;;
4317;SDS011;2172;53.576;9.934;2024-03-25T03:28:34;9.33;;;2.80;;
4317;SDS011;2172;53.576;9.934;2024-03-25T03:31:01;7.77;;;2.87;;
4317;SDS011;2172;53.576;9.934;2024-03-25T03:33:28;8.40;;;2.63;;
4317;SDS011;2172;53.576;9.934;2024-03-25T03:35:57;6.07;;;2.30;;
4317;SDS011;2172;53.576;9.934;2024-03-25T03:38:24;9.83;;;2.90;;
4317;SDS011;2172;53.576;9.934;2024-03-25T03:40:58;6.00;;;2.37;;
4317;SDS011;2172;53.576;9.934;2024-03-25T03:43:25;6.10;;;2.27;;
4317;SDS011;2172;53.576;9.934;2024-03-25T03:45:52;5.53;;;2.33;;
4317;SDS011;2172;53.576;9.934;2024-03-25T03:48:19;4.30;;;2.47;;
4317;SDS011;2172;53.576;9.934;2024-03-25T03:50:49;6.00;;;2.90;;
4317;SDS011;2172;53.576;9.934;2024-03-25T03:53:17;5.43;;;2.27;;
4317;SDS011;2172;53.576;9.934;2024-03-25T03:55:54;3.57;;;2.20;;
4317;SDS011;2172;53.576;9.934;2024-03-25T03:58:21;7.20;;;2.77;;
4317;SDS011;2172;53.576;9.934;2024-03-25T04:00:51;5.53;;;2.20;;
4317;SDS011;2172;53.576;9.934;2024-03-25T04:03:20;8.73;;;3.37;;
4317;SDS011;2172;53.576;9.934;2024-03-25T04:05:48;7.87;;;2.20;;
4317;SDS011;2172;53.576;9.934;2024-03-25T04:08:14;9.87;;;2.97;;
4317;SDS011;2172;53.576;9.934;2024-03-25T04:10:44;4.53;;;2.90;;
4317;SDS011;2172;53.576;9.934;2024-03-25T04:13:14;6.07;;;2.83;;
4317;SDS011;2172;53.576;9.934;2024-03-25T04:15:42;7.40;;;2.80;;
4317;SDS011;2172;53.576;9.934;2024-03-25T04:18:12;11.00;;;4.80;;
4317;SDS011;2172;53.576;9.934;2024-03-25T04:20:42;3.93;;;2.20;;
4317;SDS011;2172;53.576;9.934;2024-03-25T04:23:09;3.57;;;2.33;;
4317;SDS011;2172;53.576;9.934;2024-03-25T04:25:36;5.30;;;2.47;;
4317;SDS011;2172;53.576;9.934;2024-03-25T04:28:07;8.10;;;2.50;;
4317;SDS011;2172;53.576;9.934;2024-03-25T04:30:34;4.30;;;2.27;;
4317;SDS011;2172;53.576;9.934;2024-03-25T04:33:01;4.30;;;2.07;;
4317;SDS011;2172;53.576;9.934;2024-03-25T04:35:29;6.10;;;2.27;;
4317;SDS011;2172;53.576;9.934;2024-03-25T04:37:57;7.60;;;2.83;;
4317;SDS011;2172;53.576;9.934;2024-03-25T04:40:26;6.50;;;2.20;;
4317;SDS011;2172;53.576;9.934;2024-03-25T04:42:56;5.03;;;2.70;;
4317;SDS011;2172;53.576;9.934;2024-03-25T04:45:24;5.93;;;2.17;;
4317;SDS011;2172;53.576;9.934;2024-03-25T04:47:51;4.53;;;2.10;;
4317;SDS011;2172;53.576;9.934;2024-03-25T04:50:18;5.83;;;2.63;;
4317;SDS011;2172;53.576;9.934;2024-03-25T04:52:44;5.67;;;2.57;;
4317;SDS011;2172;53.576;9.934;2024-03-25T04:55:11;4.87;;;2.50;;
4317;SDS011;2172;53.576;9.934;2024-03-25T04:57:37;4.60;;;2.17;;
4317;SDS011;2172;53.576;9.934;2024-03-25T05:00:04;4.53;;;2.50;;
4317;SDS011;2172;53.576;9.934;2024-03-25T05:02:33;5.33;;;3.20;;
4317;SDS011;2172;53.576;9.934;2024-03-25T05:05:00;5.30;;;2.47;;
4317;SDS011;2172;53.576;9.934;2024-03-25T05:07:26;6.40;;;2.70;;
4317;SDS011;2172;53.576;9.934;2024-03-25T05:09:53;5.80;;;2.80;;
4317;SDS011;2172;53.576;9.934;2024-03-25T05:12:20;5.60;;;2.50;;
4317;SDS011;2172;53.576;9.934;2024-03-25T05:14:46;5.60;;;2.70;;
4317;SDS011;2172;53.576;9.934;2024-03-25T05:17:13;5.77;;;2.93;;
4317;SDS011;2172;53.576;9.934;2024-03-25T05:19:41;5.30;;;2.87;;
4317;SDS011;2172;53.576;9.934;2024-03-25T05:22:07;4.20;;;2.43;;
4317;SDS011;2172;53.576;9.934;2024-03-25T05:24:34;2.83;;;2.53;;
4317;SDS011;2172;53.576;9.934;2024-03-25T05:27:00;6.07;;;2.77;;
4317;SDS011;2172;53.576;9.934;2024-03-25T05:29:27;5.23;;;3.30;;
4317;SDS011;2172;53.576;9.934;2024-03-25T05:31:57;7.43;;;4.23;;
4317;SDS011;2172;53.576;9.934;2024-03-25T05:34:25;5.93;;;2.93;;
4317;SDS011;2172;53.576;9.934;2024-03-25T05:36:53;4.53;;;2.83;;
4317;SDS011;2172;53.576;9.934;2024-03-25T05:39:20;6.23;;;2.80;;
4317;SDS011;2172;53.576;9.934;2024-03-25T05:41:47;6.60;;;2.73;;
4317;SDS011;2172;53.576;9.934;2024-03-25T05:44:14;4.30;;;2.93;;
4317;SDS011;2172;53.576;9.934;2024-03-25T05:46:41;6.53;;;3.67;;
4317;SDS011;2172;53.576;9.934;2024-03-25T05:49:08;8.40;;;3.13;;
4317;SDS011;2172;53.576;9.934;2024-03-25T05:51:34;7.10;;;4.53;;
4317;SDS011;2172;53.576;9.934;2024-03-25T05:54:02;5.77;;;3.10;;
4317;SDS011;2172;53.576;9.934;2024-03-25T05:56:29;6.83;;;3.20;;
4317;SDS011;2172;53.576;9.934;2024-03-25T05:58:56;5.73;;;3.80;;
4317;SDS011;2172;53.576;9.934;2024-03-25T06:01:22;4.13;;;3.00;;
4317;SDS011;2172;53.576;9.934;2024-03-25T06:03:49;6.77;;;4.10;;
4317;SDS011;2172;53.576;9.934;2024-03-25T06:06:15;5.40;;;3.40;;
4317;SDS011;2172;53.576;9.934;2024-03-25T06:08:42;3.50;;;2.40;;
4317;SDS011;2172;53.576;9.934;2024-03-25T06:11:11;5.97;;;3.27;;
4317;SDS011;2172;53.576;9.934;2024-03-25T06:13:37;4.13;;;3.23;;
4317;SDS011;2172;53.576;9.934;2024-03-25T06:16:05;7.00;;;4.00;;
4317;SDS011;2172;53.576;9.934;2024-03-25T06:18:31;9.13;;;2.70;;
4317;SDS011;2172;53.576;9.934;2024-03-25T06:20:58;3.03;;;2.40;;
4317;SDS011;2172;53.576;9.934;2024-03-25T06:23:25;3.70;;;2.20;;
4317;SDS011;2172;53.576;9.934;2024-03-25T06:25:52;4.73;;;2.50;;
4317;SDS011;2172;53.576;9.934;2024-03-25T06:28:21;5.40;;;2.50;;
4317;SDS011;2172;53.576;9.934;2024-03-25T06:30:48;5.47;;;2.43;;
4317;SDS011;2172;53.576;9.934;2024-03-25T06:33:33;11.20;;;3.10;;
4317;SDS011;2172;53.576;9.934;2024-03-25T06:36:19;4.77;;;2.57;;
4317;SDS011;2172;53.576;9.934;2024-03-25T06:38:46;4.30;;;2.43;;
4317;SDS011;2172;53.576;9.934;2024-03-25T06:41:12;7.70;;;2.90;;
4317;SDS011;2172;53.576;9.934;2024-03-25T06:43:40;3.70;;;2.53;;
4317;SDS011;2172;53.576;9.934;2024-03-25T06:46:07;2.80;;;2.30;;
4317;SDS011;2172;53.576;9.934;2024-03-25T06:48:34;3.60;;;2.20;;
4317;SDS011;2172;53.576;9.934;2024-03-25T06:51:01;6.43;;;2.53;;
4317;SDS011;2172;53.576;9.934;2024-03-25T06:53:29;4.70;;;2.50;;
4317;SDS011;2172;53.576;9.934;2024-03-25T06:55:57;4.10;;;2.30;;
4317;SDS011;2172;53.576;9.934;2024-03-25T06:58:44;8.23;;;2.80;;
4317;SDS011;2172;53.576;9.934;2024-03-25T07:01:11;5.93;;;3.40;;
4317;SDS011;2172;53.576;9.934;2024-03-25T07:03:38;7.20;;;3.20;;
4317;SDS011;2172;53.576;9.934;2024-03-25T07:06:05;6.40;;;3.23;;
4317;SDS011;2172;53.576;9.934;2024-03-25T07:08:31;5.30;;;2.23;;
4317;SDS011;2172;53.576;9.934;2024-03-25T07:10:58;4.90;;;2.53;;
4317;SDS011;2172;53.576;9.934;2024-03-25T07:13:25;6.63;;;2.30;;
4317;SDS011;2172;53.576;9.934;2024-03-25T07:15:53;5.53;;;2.47;;
4317;SDS011;2172;53.576;9.934;2024-03-25T07:18:20;7.47;;;2.50;;
4317;SDS011;2172;53.576;9.934;2024-03-25T07:20:46;10.30;;;3.33;;
4317;SDS011;2172;53.576;9.934;2024-03-25T07:23:13;4.10;;;2.87;;
4317;SDS011;2172;53.576;9.934;2024-03-25T07:25:40;7.00;;;3.27;;
4317;SDS011;2172;53.576;9.934;2024-03-25T07:28:06;7.60;;;3.13;;
4317;SDS011;2172;53.576;9.934;2024-03-25T07:30:33;5.00;;;2.83;;
4317;SDS011;2172;53.576;9.934;2024-03-25T07:33:01;6.87;;;3.03;;
4317;SDS011;2172;53.576;9.934;2024-03-25T07:35:28;7.83;;;2.77;;
4317;SDS011;2172;53.576;9.934;2024-03-25T07:37:54;8.20;;;3.00;;
4317;SDS011;2172;53.576;9.934;2024-03-25T07:40:21;8.53;;;3.03;;
4317;SDS011;2172;53.576;9.934;2024-03-25T07:42:48;8.33;;;2.80;;
4317;SDS011;2172;53.576;9.934;2024-03-25T07:45:16;7.80;;;2.70;;
4317;SDS011;2172;53.576;9.934;2024-03-25T07:47:43;8.30;;;3.00;;
4317;SDS011;2172;53.576;9.934;2024-03-25T07:50:12;11.87;;;4.00;;
4317;SDS011;2172;53.576;9.934;2024-03-25T07:52:38;6.80;;;4.30;;
4317;SDS011;2172;53.576;9.934;2024-03-25T07:55:05;5.93;;;3.77;;
4317;SDS011;2172;53.576;9.934;2024-03-25T07:57:32;10.00;;;4.13;;
4317;SDS011;2172;53.576;9.934;2024-03-25T07:59:59;8.50;;;4.03;;
4317;SDS011;2172;53.576;9.934;2024-03-25T08:02:25;4.87;;;3.87;;
4317;SDS011;2172;53.576;9.934;2024-03-25T08:04:52;5.50;;;3.83;;
4317;SDS011;2172;53.576;9.934;2024-03-25T08:07:20;5.97;;;4.27;;
4317;SDS011;2172;53.576;9.934;2024-03-25T08:09:46;5.93;;;4.07;;
4317;SDS011;2172;53.576;9.934;2024-03-25T08:12:13;7.70;;;4.53;;
4317;SDS011;2172;53.576;9.934;2024-03-25T08:14:39;8.60;;;4.17;;
4317;SDS011;2172;53.576;9.934;2024-03-25T08:17:06;7.20;;;3.87;;
4317;SDS011;2172;53.576;9.934;2024-03-25T08:19:33;8.00;;;4.10;;
4317;SDS011;2172;53.576;9.934;2024-03-25T08:21:59;6.33;;;4.53;;
4317;SDS011;2172;53.576;9.934;2024-03-25T08:24:28;10.23;;;3.50;;
4317;SDS011;2172;53.576;9.934;2024-03-25T08:26:54;7.50;;;3.90;;
4317;SDS011;2172;53.576;9.934;2024-03-25T08:29:21;18.27;;;5.00;;
4317;SDS011;2172;53.576;9.934;2024-03-25T08:31:48;12.70;;;3.90;;
4317;SDS011;2172;53.576;9.934;2024-03-25T08:34:15;8.67;;;3.70;;
4317;SDS011;2172;53.576;9.934;2024-03-25T08:36:41;10.77;;;4.00;;
4317;SDS011;2172;53.576;9.934;2024-03-25T08:39:08;9.03;;;4.37;;
4317;SDS011;2172;53.576;9.934;2024-03-25T08:41:36;7.27;;;4.00;;
4317;SDS011;2172;53.576;9.934;2024-03-25T08:44:02;7.30;;;3.17;;
4317;SDS011;2172;53.576;9.934;2024-03-25T08:46:29;8.93;;;3.50;;
4317;SDS011;2172;53.576;9.934;2024-03-25T08:48:55;13.73;;;3.83;;
4317;SDS011;2172;53.576;9.934;2024-03-25T08:51:22;9.00;;;3.10;;
4317;SDS011;2172;53.576;9.934;2024-03-25T08:53:49;5.83;;;2.00;;
4317;SDS011;2172;53.576;9.934;2024-03-25T08:56:15;6.73;;;2.40;;
4317;SDS011;2172;53.576;9.934;2024-03-25T08:58:43;10.07;;;3.70;;
4317;SDS011;2172;53.576;9.934;2024-03-25T09:01:10;7.43;;;2.73;;
4317;SDS011;2172;53.576;9.934;2024-03-25T09:03:36;5.70;;;2.30;;
4317;SDS011;2172;53.576;9.934;2024-03-25T09:06:03;16.07;;;3.10;;
4317;SDS011;2172;53.576;9.934;2024-03-25T09:08:30;5.90;;;2.70;;
4317;SDS011;2172;53.576;9.934;2024-03-25T09:10:57;11.00;;;3.03;;
4317;SDS011;2172;53.576;9.934;2024-03-25T09:13:29;6.83;;;2.73;;
4317;SDS011;2172;53.576;9.934;2024-03-25T09:15:57;13.97;;;2.97;;
4317;SDS011;2172;53.576;9.934;2024-03-25T09:18:24;8.70;;;2.77;;
4317;SDS011;2172;53.576;9.934;2024-03-25T09:20:52;11.63;;;3.90;;
4317;SDS011;2172;53.576;9.934;2024-03-25T09:23:18;11.20;;;3.20;;
4317;SDS011;2172;53.576;9.934;2024-03-25T09:25:51;6.30;;;2.87;;
4317;SDS011;2172;53.576;9.934;2024-03-25T09:28:18;8.30;;;2.83;;
4317;SDS011;2172;53.576;9.934;2024-03-25T09:30:45;11.97;;;4.00;;
4317;SDS011;2172;53.576;9.934;2024-03-25T09:33:14;9.07;;;2.50;;
4317;SDS011;2172;53.576;9.934;2024-03-25T09:35:41;6.67;;;2.80;;
4317;SDS011;2172;53.576;9.934;2024-03-25T09:38:07;9.00;;;2.93;;
4317;SDS011;2172;53.576;9.934;2024-03-25T09:40:35;7.90;;;2.90;;
4317;SDS011;2172;53.576;9.934;2024-03-25T09:43:02;10.50;;;2.67;;
4317;SDS011;2172;53.576;9.934;2024-03-25T09:45:29;8.00;;;2.97;;
4317;SDS011;2172;53.576;9.934;2024-03-25T09:47:56;6.80;;;2.77;;
4317;SDS011;2172;53.576;9.934;2024-03-25T09:50:24;5.50;;;2.23;;
4317;SDS011;2172;53.576;9.934;2024-03-25T09:52:51;5.63;;;2.60;;
4317;SDS011;2172;53.576;9.934;2024-03-25T09:55:17;10.13;;;3.10;;
4317;SDS011;2172;53.576;9.934;2024-03-25T09:57:44;10.87;;;3.30;;
4317;SDS011;2172;53.576;9.934;2024-03-25T10:00:12;15.20;;;4.73;;
4317;SDS011;2172;53.576;9.934;2024-03-25T10:02:41;6.30;;;2.60;;
4317;SDS011;2172;53.576;9.934;2024-03-25T10:05:08;10.70;;;2.73;;
4317;SDS011;2172;53.576;9.934;2024-03-25T10:07:36;9.07;;;2.60;;
4317;SDS011;2172;53.576;9.934;2024-03-25T10:10:03;7.97;;;2.73;;
4317;SDS011;2172;53.576;9.934;2024-03-25T10:12:30;11.60;;;2.87;;
4317;SDS011;2172;53.576;9.934;2024-03-25T10:14:57;7.87;;;3.20;;
4317;SDS011;2172;53.576;9.934;2024-03-25T10:17:24;9.40;;;3.17;;
4317;SDS011;2172;53.576;9.934;2024-03-25T10:19:50;9.13;;;3.30;;
4317;SDS011;2172;53.576;9.934;2024-03-25T10:22:18;8.20;;;2.70;;
4317;SDS011;2172;53.576;9.934;2024-03-25T10:24:47;13.07;;;3.43;;
4317;SDS011;2172;53.576;9.934;2024-03-25T10:27:17;11.33;;;2.83;;
4317;SDS011;2172;53.576;9.934;2024-03-25T10:29:44;5.20;;;2.30;;
4317;SDS011;2172;53.576;9.934;2024-03-25T10:32:14;5.27;;;2.10;;
4317;SDS011;2172;53.576;9.934;2024-03-25T10:34:41;6.37;;;2.47;;
4317;SDS011;2172;53.576;9.934;2024-03-25T10:37:08;7.93;;;2.60;;
4317;SDS011;2172;53.576;9.934;2024-03-25T10:39:38;7.33;;;2.47;;
4317;SDS011;2172;53.576;9.934;2024-03-25T10:42:08;6.07;;;2.17;;
4317;SDS011;2172;53.576;9.934;2024-03-25T10:44:38;8.70;;;3.37;;
4317;SDS011;2172;53.576;9.934;2024-03-25T10:47:05;8.13;;;2.40;;
4317;SDS011;2172;53.576;9.934;2024-03-25T10:49:34;10.10;;;2.20;;
4317;SDS011;2172;53.576;9.934;2024-03-25T10:52:06;6.00;;;1.97;;
4317;SDS011;2172;53.576;9.934;2024-03-25T10:54:33;6.73;;;3.07;;
4317;SDS011;2172;53.576;9.934;2024-03-25T10:57:01;5.50;;;2.43;;
4317;SDS011;2172;53.576;9.934;2024-03-25T10:59:31;8.23;;;3.10;;
4317;SDS011;2172;53.576;9.934;2024-03-25T11:01:57;4.73;;;2.60;;
4317;SDS011;2172;53.576;9.934;2024-03-25T11:04:24;5.90;;;2.20;;
4317;SDS011;2172;53.576;9.934;2024-03-25T11:06:51;4.60;;;2.40;;
4317;SDS011;2172;53.576;9.934;2024-03-25T11:09:21;8.97;;;2.60;;
4317;SDS011;2172;53.576;9.934;2024-03-25T11:11:50;13.70;;;2.90;;
4317;SDS011;2172;53.576;9.934;2024-03-25T11:14:16;7.40;;;2.67;;
4317;SDS011;2172;53.576;9.934;2024-03-25T11:16:50;7.93;;;2.70;;
4317;SDS011;2172;53.576;9.934;2024-03-25T11:19:17;12.00;;;2.80;;
4317;SDS011;2172;53.576;9.934;2024-03-25T11:21:44;8.17;;;2.73;;
4317;SDS011;2172;53.576;9.934;2024-03-25T11:24:13;9.23;;;2.60;;
4317;SDS011;2172;53.576;9.934;2024-03-25T11:26:40;6.97;;;2.83;;
4317;SDS011;2172;53.576;9.934;2024-03-25T11:29:07;10.50;;;2.97;;
4317;SDS011;2172;53.576;9.934;2024-03-25T11:31:34;4.40;;;1.87;;
4317;SDS011;2172;53.576;9.934;2024-03-25T11:34:06;4.03;;;2.00;;
4317;SDS011;2172;53.576;9.934;2024-03-25T11:36:33;8.20;;;2.37;;
4317;SDS011;2172;53.576;9.934;2024-03-25T11:38:59;6.70;;;2.73;;
4317;SDS011;2172;53.576;9.934;2024-03-25T11:41:29;7.17;;;2.90;;
4317;SDS011;2172;53.576;9.934;2024-03-25T11:43:57;9.87;;;2.30;;
4317;SDS011;2172;53.576;9.934;2024-03-25T11:46:24;7.00;;;2.93;;
4317;SDS011;2172;53.576;9.934;2024-03-25T11:48:51;5.60;;;1.80;;
4317;SDS011;2172;53.576;9.934;2024-03-25T11:51:19;8.63;;;2.73;;
4317;SDS011;2172;53.576;9.934;2024-03-25T11:53:46;7.27;;;2.57;;
4317;SDS011;2172;53.576;9.934;2024-03-25T11:56:12;8.20;;;2.47;;
4317;SDS011;2172;53.576;9.934;2024-03-25T11:58:40;10.10;;;2.77;;
4317;SDS011;2172;53.576;9.934;2024-03-25T12:01:06;8.93;;;2.57;;
4317;SDS011;2172;53.576;9.934;2024-03-25T12:03:33;6.00;;;2.60;;
4317;SDS011;2172;53.576;9.934;2024-03-25T12:06:00;3.53;;;1.97;;
4317;SDS011;2172;53.576;9.934;2024-03-25T12:08:28;5.50;;;2.37;;
4317;SDS011;2172;53.576;9.934;2024-03-25T12:10:55;6.73;;;2.97;;
4317;SDS011;2172;53.576;9.934;2024-03-25T12:13:40;7.73;;;2.27;;
4317;SDS011;2172;53.576;9.934;2024-03-25T12:16:07;10.40;;;3.27;;
4317;SDS011;2172;53.576;9.934;2024-03-25T12:18:33;8.40;;;2.27;;
4317;SDS011;2172;53.576;9.934;2024-03-25T12:21:00;6.10;;;2.33;;
4317;SDS011;2172;53.576;9.934;2024-03-25T12:23:32;5.10;;;1.83;;
4317;SDS011;2172;53.576;9.934;2024-03-25T12:25:59;7.10;;;2.53;;
4317;SDS011;2172;53.576;9.934;2024-03-25T12:28:26;6.50;;;2.40;;
4317;SDS011;2172;53.576;9.934;2024-03-25T12:30:53;7.40;;;2.53;;
4317;SDS011;2172;53.576;9.934;2024-03-25T12:33:20;5.10;;;1.97;;
4317;SDS011;2172;53.576;9.934;2024-03-25T12:35:48;5.77;;;1.87;;
4317;SDS011;2172;53.576;9.934;2024-03-25T12:38:24;2.80;;;1.87;;
4317;SDS011;2172;53.576;9.934;2024-03-25T12:40:53;3.60;;;2.03;;
4317;SDS011;2172;53.576;9.934;2024-03-25T12:43:28;9.60;;;2.20;;
4317;SDS011;2172;53.576;9.934;2024-03-25T12:45:57;5.10;;;2.37;;
4317;SDS011;2172;53.576;9.934;2024-03-25T12:48:25;6.67;;;2.00;;
4317;SDS011;2172;53.576;9.934;2024-03-25T12:50:52;11.60;;;2.50;;
4317;SDS011;2172;53.576;9.934;2024-03-25T12:53:19;6.60;;;2.50;;
4317;SDS011;2172;53.576;9.934;2024-03-25T12:55:45;10.37;;;2.77;;
4317;SDS011;2172;53.576;9.934;2024-03-25T12:58:14;7.90;;;2.87;;
4317;SDS011;2172;53.576;9.934;2024-03-25T13:00:40;7.87;;;2.43;;
4317;SDS011;2172;53.576;9.934;2024-03-25T13:03:07;7.50;;;2.50;;
4317;SDS011;2172;53.576;9.934;2024-03-25T13:05:34;8.27;;;2.37;;
4317;SDS011;2172;53.576;9.934;2024-03-25T13:08:01;7.07;;;2.30;;
4317;SDS011;2172;53.576;9.934;2024-03-25T13:10:28;16.67;;;2.93;;
4317;SDS011;2172;53.576;9.934;2024-03-25T13:12:55;7.37;;;2.70;;
4317;SDS011;2172;53.576;9.934;2024-03-25T13:15:24;10.43;;;2.70;;
4317;SDS011;2172;53.576;9.934;2024-03-25T13:17:50;5.60;;;2.33;;
4317;SDS011;2172;53.576;9.934;2024-03-25T13:20:17;12.50;;;2.97;;
4317;SDS011;2172;53.576;9.934;2024-03-25T13:22:43;5.73;;;2.50;;
4317;SDS011;2172;53.576;9.934;2024-03-25T13:25:10;7.27;;;3.17;;
4317;SDS011;2172;53.576;9.934;2024-03-25T13:27:37;10.73;;;1.90;;
4317;SDS011;2172;53.576;9.934;2024-03-25T13:30:04;12.17;;;2.83;;
4317;SDS011;2172;53.576;9.934;2024-03-25T13:32:33;13.73;;;3.00;;
4317;SDS011;2172;53.576;9.934;2024-03-25T13:35:00;9.83;;;3.13;;
4317;SDS011;2172;53.576;9.934;2024-03-25T13:37:26;8.97;;;2.80;;
4317;SDS011;2172;53.576;9.934;2024-03-25T13:39:53;7.10;;;2.50;;
4317;SDS011;2172;53.576;9.934;2024-03-25T13:42:19;8.20;;;2.13;;
4317;SDS011;2172;53.576;9.934;2024-03-25T13:44:46;5.13;;;2.10;;
4317;SDS011;2172;53.576;9.934;2024-03-25T13:47:14;6.13;;;2.10;;
4317;SDS011;2172;53.576;9.934;2024-03-25T13:49:42;10.13;;;2.57;;
4317;SDS011;2172;53.576;9.934;2024-03-25T13:52:09;6.30;;;2.30;;
4317;SDS011;2172;53.576;9.934;2024-03-25T13:54:35;9.17;;;2.77;;
4317;SDS011;2172;53.576;9.934;2024-03-25T13:57:02;11.33;;;3.30;;
4317;SDS011;2172;53.576;9.934;2024-03-25T13:59:29;8.07;;;2.83;;
4317;SDS011;2172;53.576;9.934;2024-03-25T14:01:55;11.13;;;3.50;;
4317;SDS011;2172;53.576;9.934;2024-03-25T14:04:22;3.20;;;2.10;;
4317;SDS011;2172;53.576;9.934;2024-03-25T14:06:50;8.43;;;3.20;;
4317;SDS011;2172;53.576;9.934;2024-03-25T14:09:23;5.13;;;2.23;;
4317;SDS011;2172;53.576;9.934;2024-03-25T14:11:49;7.43;;;2.70;;
4317;SDS011;2172;53.576;9.934;2024-03-25T14:14:16;5.60;;;2.10;;
4317;SDS011;2172;53.576;9.934;2024-03-25T14:16:42;7.90;;;2.67;;
4317;SDS011;2172;53.576;9.934;2024-03-25T14:19:09;8.77;;;2.10;;
4317;SDS011;2172;53.576;9.934;2024-03-25T14:21:36;5.77;;;2.33;;
4317;SDS011;2172;53.576;9.934;2024-03-25T14:24:05;4.93;;;2.17;;
4317;SDS011;2172;53.576;9.934;2024-03-25T14:26:32;5.63;;;3.00;;
4317;SDS011;2172;53.576;9.934;2024-03-25T14:28:59;7.50;;;2.70;;
4317;SDS011;2172;53.576;9.934;2024-03-25T14:31:26;3.87;;;1.40;;
4317;SDS011;2172;53.576;9.934;2024-03-25T14:33:52;4.57;;;1.50;;
4317;SDS011;2172;53.576;9.934;2024-03-25T14:36:19;8.43;;;2.80;;
4317;SDS011;2172;53.576;9.934;2024-03-25T14:38:46;7.43;;;2.20;;
4317;SDS011;2172;53.576;9.934;2024-03-25T14:41:18;6.93;;;2.90;;
4317;SDS011;2172;53.576;9.934;2024-03-25T14:43:45;4.50;;;1.60;;
4317;SDS011;2172;53.576;9.934;2024-03-25T14:46:15;6.43;;;1.80;;
4317;SDS011;2172;53.576;9.934;2024-03-25T14:48:41;5.80;;;2.43;;
4317;SDS011;2172;53.576;9.934;2024-03-25T14:51:08;7.33;;;2.13;;
4317;SDS011;2172;53.576;9.934;2024-03-25T14:53:35;8.07;;;1.53;;
4317;SDS011;2172;53.576;9.934;2024-03-25T14:56:01;8.70;;;2.10;;
4317;SDS011;2172;53.576;9.934;2024-03-25T14:58:30;7.23;;;1.60;;
4317;SDS011;2172;53.576;9.934;2024-03-25T15:00:57;6.13;;;2.40;;
4317;SDS011;2172;53.576;9.934;2024-03-25T15:03:23;6.73;;;1.60;;
4317;SDS011;2172;53.576;9.934;2024-03-25T15:05:50;4.43;;;1.83;;
4317;SDS011;2172;53.576;9.934;2024-03-25T15:08:17;5.03;;;2.03;;
4317;SDS011;2172;53.576;9.934;2024-03-25T15:10:45;5.10;;;1.67;;
4317;SDS011;2172;53.576;9.934;2024-03-25T15:13:12;6.57;;;1.50;;
4317;SDS011;2172;53.576;9.934;2024-03-25T15:15:40;6.20;;;2.00;;